createdAt,value
2019-03-24T00:00:35.976Z,23.40
2019-03-24T00:03:05.433Z,20.00
2019-03-24T00:05:34.931Z,29.33
2019-03-24T00:08:04.518Z,27.80
2019-03-24T00:10:33.947Z,27.40
2019-03-24T00:13:03.389Z,33.23
2019-03-24T00:15:32.895Z,35.93
2019-03-24T00:18:02.359Z,25.10
2019-03-24T00:20:31.834Z,37.47
2019-03-24T00:23:01.293Z,32.13
2019-03-24T00:25:31.730Z,29.20
2019-03-24T00:28:01.174Z,31.47
2019-03-24T00:30:30.659Z,32.10
2019-03-24T00:33:00.106Z,24.27
2019-03-24T00:35:29.582Z,32.27
2019-03-24T00:37:59.087Z,44.07
2019-03-24T00:40:28.515Z,33.40
2019-03-24T00:42:57.963Z,34.97
2019-03-24T00:45:36.456Z,33.00
2019-03-24T00:47:58.589Z,36.97
2019-03-24T00:50:28.087Z,34.67
2019-03-24T00:52:57.527Z,44.07
2019-03-24T00:55:27.043Z,36.90
2019-03-24T00:57:56.499Z,36.07
2019-03-24T01:00:38.139Z,31.40
2019-03-24T01:03:07.583Z,43.53
2019-03-24T01:05:37.054Z,38.87
2019-03-24T01:08:06.666Z,26.70
2019-03-24T01:10:36.134Z,35.40
2019-03-24T01:13:06.622Z,31.50
2019-03-24T01:15:47.128Z,51.83
2019-03-24T01:18:07.935Z,31.83
2019-03-24T01:20:37.406Z,38.70
2019-03-24T01:23:06.943Z,40.27
2019-03-24T01:25:36.418Z,39.97
2019-03-24T01:28:05.891Z,39.97
2019-03-24T01:30:35.386Z,40.13
2019-03-24T01:33:04.980Z,51.00
2019-03-24T01:35:35.521Z,40.63
2019-03-24T01:38:05.062Z,49.37
2019-03-24T01:40:34.534Z,51.70
2019-03-24T01:43:04.147Z,47.63
2019-03-24T01:45:33.689Z,41.03
2019-03-24T01:48:04.347Z,50.00
2019-03-24T01:50:33.846Z,44.43
2019-03-24T01:53:03.316Z,43.17
2019-03-24T01:55:32.790Z,44.77
2019-03-24T01:58:02.246Z,38.97
2019-03-24T02:00:31.810Z,33.33
2019-03-24T02:03:01.292Z,41.47
2019-03-24T02:05:30.827Z,47.37
2019-03-24T02:08:00.278Z,44.30
2019-03-24T02:10:29.768Z,59.60
2019-03-24T02:12:59.282Z,51.03
2019-03-24T02:15:28.762Z,48.40
2019-03-24T02:17:58.238Z,40.30
2019-03-24T02:20:27.730Z,55.10
2019-03-24T02:22:57.183Z,51.93
2019-03-24T02:25:26.667Z,54.33
2019-03-24T02:27:56.187Z,43.13
2019-03-24T02:30:27.435Z,56.20
2019-03-24T02:32:56.895Z,38.97
2019-03-24T02:35:26.367Z,41.17
2019-03-24T02:37:55.824Z,46.13
2019-03-24T02:40:25.299Z,42.70
2019-03-24T02:42:54.784Z,42.27
2019-03-24T02:45:24.247Z,54.17
2019-03-24T02:47:53.703Z,43.30
2019-03-24T02:50:23.236Z,43.97
2019-03-24T02:52:52.631Z,54.63
2019-03-24T02:55:22.113Z,42.23
2019-03-24T02:57:51.575Z,57.63
2019-03-24T03:00:21.051Z,46.60
2019-03-24T03:02:50.591Z,41.10
2019-03-24T03:05:20.056Z,50.00
2019-03-24T03:07:49.511Z,39.20
2019-03-24T03:10:19.134Z,44.23
2019-03-24T03:12:49.672Z,46.90
2019-03-24T03:15:19.178Z,42.37
2019-03-24T03:17:48.636Z,48.93
2019-03-24T03:20:18.158Z,30.63
2019-03-24T03:22:47.602Z,38.40
2019-03-24T03:25:17.086Z,50.17
2019-03-24T03:27:46.553Z,53.63
2019-03-24T03:30:16.371Z,46.63
2019-03-24T03:32:45.808Z,45.93
2019-03-24T03:35:15.682Z,42.37
2019-03-24T03:37:45.129Z,48.27
2019-03-24T03:40:14.756Z,56.53
2019-03-24T03:42:44.604Z,42.77
2019-03-24T03:45:17.177Z,41.60
2019-03-24T03:47:46.632Z,56.83
2019-03-24T03:50:16.091Z,33.77
2019-03-24T03:52:45.570Z,60.73
2019-03-24T03:55:15.092Z,51.47
2019-03-24T03:57:44.563Z,53.77
2019-03-24T04:00:14.256Z,48.87
2019-03-24T04:02:43.753Z,55.37
2019-03-24T04:05:13.277Z,60.63
2019-03-24T04:07:42.755Z,43.00
2019-03-24T04:10:12.275Z,51.60
2019-03-24T04:12:41.753Z,49.33
2019-03-24T04:15:11.277Z,45.73
2019-03-24T04:17:40.753Z,40.17
2019-03-24T04:20:10.439Z,56.57
2019-03-24T04:22:39.911Z,53.47
2019-03-24T04:25:09.509Z,39.53
2019-03-24T04:27:38.979Z,47.00
2019-03-24T04:30:09.471Z,37.87
2019-03-24T04:32:38.948Z,52.33
2019-03-24T04:35:09.060Z,37.87
2019-03-24T04:37:38.512Z,49.37
2019-03-24T04:40:08.706Z,46.27
2019-03-24T04:42:38.181Z,43.23
2019-03-24T04:45:08.170Z,56.33
2019-03-24T04:47:37.642Z,48.93
2019-03-24T04:50:08.741Z,41.17
2019-03-24T04:52:39.184Z,61.97
2019-03-24T04:55:08.978Z,45.37
2019-03-24T04:57:38.459Z,45.60
2019-03-24T05:00:09.363Z,56.43
2019-03-24T05:02:38.843Z,45.23
2019-03-24T05:05:10.299Z,46.47
2019-03-24T05:07:40.747Z,45.47
2019-03-24T05:10:13.279Z,54.40
2019-03-24T05:12:42.759Z,47.13
2019-03-24T05:15:12.207Z,37.77
2019-03-24T05:17:41.695Z,51.57
2019-03-24T05:20:11.290Z,47.90
2019-03-24T05:22:40.765Z,53.00
2019-03-24T05:25:10.211Z,48.43
2019-03-24T05:27:40.658Z,38.73
2019-03-24T05:30:10.246Z,43.67
2019-03-24T05:32:39.727Z,38.60
2019-03-24T05:35:09.257Z,56.20
2019-03-24T05:37:38.728Z,45.70
2019-03-24T05:40:08.320Z,52.77
2019-03-24T05:42:37.867Z,57.07
2019-03-24T05:45:07.860Z,51.17
2019-03-24T05:47:37.673Z,50.13
2019-03-24T05:50:10.097Z,44.33
2019-03-24T05:52:39.580Z,52.37
2019-03-24T05:55:09.173Z,61.77
2019-03-24T05:57:38.652Z,50.17
2019-03-24T06:00:08.441Z,47.77
2019-03-24T06:02:37.987Z,62.97
2019-03-24T06:05:07.586Z,57.50
2019-03-24T06:07:37.103Z,55.53
2019-03-24T06:10:07.467Z,62.97
2019-03-24T06:12:36.947Z,55.87
2019-03-24T06:15:08.663Z,44.20
2019-03-24T06:17:47.409Z,57.33
2019-03-24T06:20:09.647Z,51.27
2019-03-24T06:22:39.127Z,60.17
2019-03-24T06:25:08.924Z,68.33
2019-03-24T06:27:38.399Z,50.87
2019-03-24T06:30:08.598Z,53.37
2019-03-24T06:32:38.122Z,60.37
2019-03-24T06:35:07.671Z,48.63
2019-03-24T06:37:37.153Z,52.07
2019-03-24T06:40:07.750Z,67.07
2019-03-24T06:42:37.224Z,57.57
2019-03-24T06:45:07.920Z,54.63
2019-03-24T06:47:37.404Z,51.03
2019-03-24T06:50:08.661Z,62.20
2019-03-24T06:52:38.139Z,52.83
2019-03-24T06:55:07.874Z,52.40
2019-03-24T06:57:37.334Z,56.07
2019-03-24T07:00:08.526Z,52.27
2019-03-24T07:02:38.009Z,43.90
2019-03-24T07:05:07.707Z,45.80
2019-03-24T07:07:37.187Z,46.17
2019-03-24T07:10:08.783Z,43.93
2019-03-24T07:12:39.244Z,47.20
2019-03-24T07:15:08.824Z,47.20
2019-03-24T07:17:38.303Z,45.77
2019-03-24T07:20:08.404Z,44.97
2019-03-24T07:22:39.018Z,44.30
2019-03-24T07:25:08.714Z,46.07
2019-03-24T07:27:38.190Z,50.50
2019-03-24T07:30:09.987Z,45.37
2019-03-24T07:32:39.488Z,44.27
2019-03-24T07:35:09.393Z,43.93
2019-03-24T07:37:38.875Z,59.30
2019-03-24T07:40:08.468Z,48.27
2019-03-24T07:42:38.061Z,48.97
2019-03-24T07:45:08.320Z,57.70
2019-03-24T07:47:37.798Z,48.87
2019-03-24T07:50:09.199Z,50.00
2019-03-24T07:52:38.675Z,51.83
2019-03-24T07:55:08.204Z,45.77
2019-03-24T07:57:37.684Z,47.23
2019-03-24T08:00:09.184Z,55.13
2019-03-24T08:02:39.929Z,44.70
2019-03-24T08:05:09.452Z,51.20
2019-03-24T08:07:38.927Z,44.17
2019-03-24T08:10:09.991Z,48.90
2019-03-24T08:12:39.514Z,49.97
2019-03-24T08:15:08.991Z,46.83
2019-03-24T08:17:38.537Z,46.83
2019-03-24T08:20:08.132Z,42.97
2019-03-24T08:22:37.614Z,54.63
2019-03-24T08:25:07.331Z,58.40
2019-03-24T08:27:36.812Z,46.10
2019-03-24T08:30:09.011Z,46.00
2019-03-24T08:32:38.495Z,34.63
2019-03-24T08:35:08.021Z,60.27
2019-03-24T08:37:37.563Z,48.13
2019-03-24T08:40:07.764Z,37.53
2019-03-24T08:42:37.311Z,48.07
2019-03-24T08:45:08.579Z,41.00
2019-03-24T08:47:38.058Z,39.47
2019-03-24T08:50:08.155Z,46.93
2019-03-24T08:52:37.633Z,40.10
2019-03-24T08:55:07.433Z,42.47
2019-03-24T08:57:36.911Z,51.37
2019-03-24T09:00:07.004Z,47.60
2019-03-24T09:02:36.482Z,37.40
2019-03-24T09:05:06.807Z,38.40
2019-03-24T09:07:36.289Z,49.10
2019-03-24T09:10:06.458Z,42.27
2019-03-24T09:12:35.867Z,36.00
2019-03-24T09:15:06.571Z,43.03
2019-03-24T09:17:37.051Z,45.27
2019-03-24T09:20:07.016Z,52.93
2019-03-24T09:22:36.496Z,43.80
2019-03-24T09:25:08.293Z,40.23
2019-03-24T09:27:37.798Z,37.13
2019-03-24T09:30:13.134Z,35.23
2019-03-24T09:32:42.619Z,38.17
2019-03-24T09:35:12.144Z,29.63
2019-03-24T09:37:41.631Z,34.10
2019-03-24T09:40:14.154Z,34.50
2019-03-24T09:42:43.639Z,34.53
2019-03-24T09:45:13.094Z,24.77
2019-03-24T09:47:42.575Z,29.37
2019-03-24T09:50:12.027Z,27.47
2019-03-24T09:52:41.507Z,26.13
2019-03-24T09:55:10.959Z,33.53
2019-03-24T09:57:40.435Z,35.43
2019-03-24T10:00:10.157Z,27.47
2019-03-24T10:02:39.689Z,32.27
2019-03-24T10:05:09.384Z,25.87
2019-03-24T10:07:38.854Z,34.57
2019-03-24T10:10:09.171Z,35.33
2019-03-24T10:12:38.631Z,27.47
2019-03-24T10:15:08.278Z,30.87
2019-03-24T10:17:37.736Z,25.47
2019-03-24T10:20:07.455Z,24.40
2019-03-24T10:22:36.911Z,20.80
2019-03-24T10:25:09.296Z,28.37
2019-03-24T10:27:38.760Z,27.00
2019-03-24T10:30:08.674Z,22.90
2019-03-24T10:32:38.130Z,27.87
2019-03-24T10:35:08.956Z,21.13
2019-03-24T10:37:38.419Z,24.33
2019-03-24T10:40:08.235Z,23.67
2019-03-24T10:42:37.963Z,28.73
2019-03-24T10:45:08.287Z,15.87
2019-03-24T10:47:37.809Z,19.43
2019-03-24T10:50:09.335Z,29.23
2019-03-24T10:52:39.770Z,27.53
2019-03-24T10:55:10.902Z,22.67
2019-03-24T10:57:40.432Z,28.20
2019-03-24T11:00:14.723Z,29.30
2019-03-24T11:02:44.183Z,25.57
2019-03-24T11:05:14.011Z,29.73
2019-03-24T11:07:43.474Z,29.77
2019-03-24T11:10:13.230Z,27.57
2019-03-24T11:12:42.692Z,32.60
2019-03-24T11:15:13.257Z,32.80
2019-03-24T11:17:42.712Z,19.23
2019-03-24T11:20:12.261Z,28.67
2019-03-24T11:22:41.724Z,25.33
2019-03-24T11:25:11.951Z,25.27
2019-03-24T11:27:41.418Z,18.47
2019-03-24T11:30:13.207Z,20.40
2019-03-24T11:32:42.891Z,24.60
2019-03-24T11:35:13.515Z,21.50
2019-03-24T11:37:42.979Z,30.00
2019-03-24T11:40:13.003Z,21.90
2019-03-24T11:42:42.456Z,26.17
2019-03-24T11:45:12.476Z,25.57
2019-03-24T11:47:41.943Z,20.40
2019-03-24T11:50:11.958Z,29.23
2019-03-24T11:52:41.417Z,22.70
2019-03-24T11:55:11.134Z,21.57
2019-03-24T11:57:40.659Z,30.70
2019-03-24T12:00:12.955Z,24.20
2019-03-24T12:02:42.465Z,17.47
2019-03-24T12:05:13.083Z,24.63
2019-03-24T12:07:42.564Z,21.83
2019-03-24T12:10:13.751Z,28.13
2019-03-24T12:12:43.211Z,18.90
2019-03-24T12:15:13.023Z,21.63
2019-03-24T12:17:42.485Z,20.67
2019-03-24T12:20:12.239Z,15.57
2019-03-24T12:22:41.756Z,20.80
2019-03-24T12:25:11.319Z,23.03
2019-03-24T12:27:41.056Z,14.43
2019-03-24T12:30:12.238Z,13.43
2019-03-24T12:32:43.315Z,10.23
2019-03-24T12:35:13.127Z,16.17
2019-03-24T12:37:45.723Z,11.47
2019-03-24T12:40:15.909Z,9.93
2019-03-24T12:42:45.367Z,14.57
2019-03-24T12:45:15.836Z,13.03
2019-03-24T12:47:45.343Z,10.37
2019-03-24T12:50:15.673Z,10.70
2019-03-24T12:52:45.135Z,17.77
2019-03-24T12:55:14.696Z,11.90
2019-03-24T12:57:44.301Z,12.37
2019-03-24T13:00:15.835Z,17.57
2019-03-24T13:02:45.303Z,10.57
2019-03-24T13:05:16.391Z,18.63
2019-03-24T13:07:45.847Z,16.03
2019-03-24T13:10:16.303Z,12.17
2019-03-24T13:12:45.781Z,17.53
2019-03-24T13:15:15.435Z,12.23
2019-03-24T13:17:44.978Z,13.60
2019-03-24T13:20:22.545Z,15.87
2019-03-24T13:22:45.668Z,12.67
2019-03-24T13:25:15.143Z,12.73
2019-03-24T13:27:44.601Z,14.90
2019-03-24T13:30:14.640Z,14.53
2019-03-24T13:32:44.087Z,10.23
2019-03-24T13:35:14.667Z,14.20
2019-03-24T13:37:44.064Z,15.37
2019-03-24T13:40:13.615Z,14.00
2019-03-24T13:42:43.099Z,13.23
2019-03-24T13:45:12.699Z,18.37
2019-03-24T13:47:42.187Z,12.50
2019-03-24T13:50:11.780Z,12.27
2019-03-24T13:52:41.936Z,14.07
2019-03-24T13:55:11.466Z,11.07
2019-03-24T13:57:40.949Z,8.37
2019-03-24T14:00:11.643Z,11.23
2019-03-24T14:02:41.192Z,6.53
2019-03-24T14:05:10.638Z,9.17
2019-03-24T14:07:40.124Z,7.73
2019-03-24T14:10:09.642Z,9.93
2019-03-24T14:12:39.135Z,4.47
2019-03-24T14:15:09.130Z,7.20
2019-03-24T14:17:38.611Z,10.87
2019-03-24T14:20:09.204Z,10.37
2019-03-24T14:22:38.918Z,3.10
2019-03-24T14:25:08.818Z,12.47
2019-03-24T14:27:38.307Z,5.40
2019-03-24T14:30:08.594Z,9.67
2019-03-24T14:32:38.068Z,8.10
2019-03-24T14:35:07.917Z,8.20
2019-03-24T14:37:38.561Z,9.83
2019-03-24T14:40:08.658Z,8.63
2019-03-24T14:42:38.141Z,9.37
2019-03-24T14:45:09.435Z,9.27
2019-03-24T14:47:38.938Z,11.27
2019-03-24T14:50:10.018Z,6.30
2019-03-24T14:52:40.546Z,5.30
2019-03-24T14:55:09.995Z,7.23
2019-03-24T14:57:39.477Z,7.80
2019-03-24T15:00:09.842Z,10.83
2019-03-24T15:02:40.862Z,7.70
2019-03-24T15:05:10.551Z,10.67
2019-03-24T15:07:40.030Z,6.70
2019-03-24T15:10:09.827Z,10.53
2019-03-24T15:12:40.274Z,6.17
2019-03-24T15:15:09.959Z,5.23
2019-03-24T15:17:39.439Z,2.37
2019-03-24T15:20:09.230Z,3.47
2019-03-24T15:22:38.726Z,3.23
2019-03-24T15:25:09.220Z,3.10
2019-03-24T15:27:38.698Z,5.47
2019-03-24T15:30:09.290Z,3.33
2019-03-24T15:32:38.770Z,5.30
2019-03-24T15:35:09.695Z,5.10
2019-03-24T15:37:39.183Z,5.00
2019-03-24T15:40:09.474Z,6.33
2019-03-24T15:42:38.944Z,6.40
2019-03-24T15:45:08.539Z,6.73
2019-03-24T15:47:38.018Z,6.47
2019-03-24T15:50:08.116Z,5.27
2019-03-24T15:52:37.760Z,8.10
2019-03-24T15:55:07.547Z,9.83
2019-03-24T15:57:37.026Z,9.03
2019-03-24T16:00:08.160Z,9.03
2019-03-24T16:02:37.638Z,10.33
2019-03-24T16:05:07.534Z,8.50
2019-03-24T16:07:37.182Z,8.93
2019-03-24T16:10:09.471Z,12.97
2019-03-24T16:12:38.959Z,12.40
2019-03-24T16:15:08.865Z,6.63
2019-03-24T16:17:38.335Z,13.53
2019-03-24T16:20:09.577Z,12.03
2019-03-24T16:22:39.006Z,8.83
2019-03-24T16:25:08.532Z,15.40
2019-03-24T16:27:38.035Z,5.23
2019-03-24T16:30:08.487Z,8.83
2019-03-24T16:32:37.966Z,17.80
2019-03-24T16:35:07.560Z,7.20
2019-03-24T16:37:37.109Z,9.23
2019-03-24T16:40:07.601Z,8.30
2019-03-24T16:42:37.088Z,11.63
2019-03-24T16:45:06.880Z,8.07
2019-03-24T16:47:36.350Z,8.87
2019-03-24T16:50:07.355Z,11.40
2019-03-24T16:52:36.832Z,12.70
2019-03-24T16:55:12.052Z,14.23
2019-03-24T16:57:40.642Z,15.20
2019-03-24T17:00:10.218Z,10.57
2019-03-24T17:02:39.750Z,12.77
2019-03-24T17:05:09.271Z,10.93
2019-03-24T17:07:38.858Z,11.10
2019-03-24T17:10:09.246Z,8.73
2019-03-24T17:12:38.718Z,11.40
2019-03-24T17:15:08.729Z,15.53
2019-03-24T17:17:38.241Z,11.00
2019-03-24T17:20:08.846Z,12.07
2019-03-24T17:22:38.357Z,13.60
2019-03-24T17:25:08.300Z,14.27
2019-03-24T17:27:37.812Z,17.80
2019-03-24T17:30:11.673Z,13.90
2019-03-24T17:32:41.791Z,19.50
2019-03-24T17:35:11.388Z,11.37
2019-03-24T17:37:42.006Z,11.93
2019-03-24T17:40:15.254Z,13.30
2019-03-24T17:42:44.693Z,13.13
2019-03-24T17:45:14.801Z,15.70
2019-03-24T17:47:44.319Z,18.33
2019-03-24T17:50:14.021Z,14.93
2019-03-24T17:52:44.345Z,12.27
2019-03-24T17:55:14.053Z,10.90
2019-03-24T17:57:43.637Z,12.60
2019-03-24T18:00:17.105Z,12.93
2019-03-24T18:02:46.745Z,13.77
2019-03-24T18:05:16.349Z,15.90
2019-03-24T18:07:45.789Z,19.90
2019-03-24T18:10:15.429Z,16.53
2019-03-24T18:12:44.976Z,13.30
2019-03-24T18:15:15.650Z,12.17
2019-03-24T18:17:45.107Z,13.07
2019-03-24T18:20:17.655Z,10.90
2019-03-24T18:22:47.093Z,16.40
2019-03-24T18:25:16.558Z,19.50
2019-03-24T18:27:45.996Z,13.83
2019-03-24T18:30:15.608Z,10.60
2019-03-24T18:32:45.154Z,15.97
2019-03-24T18:35:14.690Z,15.27
2019-03-24T18:37:44.134Z,17.60
2019-03-24T18:40:15.582Z,10.33
2019-03-24T18:42:45.022Z,10.73
2019-03-24T18:45:15.329Z,12.27
2019-03-24T18:47:52.239Z,16.20
2019-03-24T18:50:21.757Z,11.97
2019-03-24T18:52:51.314Z,16.20
2019-03-24T18:55:20.844Z,13.57
2019-03-24T18:57:50.324Z,7.27
2019-03-24T19:00:20.628Z,9.93
2019-03-24T19:02:50.867Z,16.83
2019-03-24T19:05:21.157Z,10.60
2019-03-24T19:07:50.681Z,15.53
2019-03-24T19:10:20.238Z,10.20
2019-03-24T19:12:49.752Z,12.50
2019-03-24T19:15:20.275Z,14.37
2019-03-24T19:17:49.707Z,14.33
2019-03-24T19:20:19.316Z,10.50
2019-03-24T19:22:48.755Z,7.83
2019-03-24T19:25:18.303Z,9.10
2019-03-24T19:27:47.749Z,13.37
2019-03-24T19:30:20.005Z,16.90
2019-03-24T19:32:49.444Z,17.33
2019-03-24T19:35:18.912Z,12.03
2019-03-24T19:37:48.930Z,17.53
2019-03-24T19:40:34.914Z,16.23
2019-03-24T19:43:04.569Z,10.43
2019-03-24T19:45:34.109Z,11.57
2019-03-24T19:48:03.561Z,12.87
2019-03-24T19:50:33.036Z,11.53
2019-03-24T19:53:02.542Z,17.73
2019-03-24T19:55:32.081Z,14.10
2019-03-24T19:58:01.517Z,11.43
2019-03-24T20:00:31.066Z,14.57
2019-03-24T20:03:00.501Z,11.00
2019-03-24T20:05:30.110Z,10.13
2019-03-24T20:07:59.621Z,17.50
2019-03-24T20:10:29.165Z,15.07
2019-03-24T20:12:58.685Z,13.03
2019-03-24T20:15:28.151Z,13.23
2019-03-24T20:17:57.593Z,14.33
2019-03-24T20:20:27.057Z,12.40
2019-03-24T20:22:57.140Z,16.57
2019-03-24T20:25:26.666Z,12.57
2019-03-24T20:27:56.226Z,25.10
2019-03-24T20:30:25.677Z,15.77
2019-03-24T20:32:55.202Z,15.00
2019-03-24T20:35:24.732Z,16.83
2019-03-24T20:37:54.241Z,9.10
2019-03-24T20:40:23.706Z,11.40
2019-03-24T20:42:58.258Z,12.30
2019-03-24T20:45:27.725Z,12.43
2019-03-24T20:47:57.165Z,13.47
2019-03-24T20:50:26.631Z,12.80
2019-03-24T20:53:04.123Z,12.03
2019-03-24T20:55:27.158Z,16.33
2019-03-24T20:57:57.777Z,14.27
2019-03-24T21:00:34.742Z,13.10
2019-03-24T21:03:06.885Z,9.40
2019-03-24T21:05:36.560Z,11.27
2019-03-24T21:08:06.168Z,8.87
2019-03-24T21:10:35.605Z,10.73
2019-03-24T21:13:05.212Z,13.40
2019-03-24T21:15:34.670Z,22.43
2019-03-24T21:18:05.267Z,11.87
2019-03-24T21:20:34.718Z,11.17
2019-03-24T21:23:04.447Z,10.47
2019-03-24T21:25:33.892Z,10.67
2019-03-24T21:28:04.390Z,12.30
2019-03-24T21:30:39.844Z,15.83
2019-03-24T21:33:09.325Z,15.93
2019-03-24T21:35:38.768Z,13.17
2019-03-24T21:38:08.308Z,11.50
2019-03-24T21:40:37.753Z,12.50
2019-03-24T21:43:07.219Z,6.27
2019-03-24T21:45:36.658Z,10.83
2019-03-24T21:48:06.157Z,14.50
2019-03-24T21:50:35.699Z,11.70
2019-03-24T21:53:05.339Z,10.50
2019-03-24T21:55:34.782Z,16.00
2019-03-24T21:58:05.443Z,16.77
2019-03-24T22:00:35.984Z,18.37
2019-03-24T22:03:05.736Z,13.63
2019-03-24T22:05:35.246Z,13.13
2019-03-24T22:08:04.854Z,17.30
2019-03-24T22:10:34.290Z,11.93
2019-03-24T22:13:03.893Z,14.27
2019-03-24T22:15:33.334Z,14.93
2019-03-24T22:18:02.793Z,15.50
2019-03-24T22:20:32.305Z,15.50
2019-03-24T22:23:01.765Z,12.60
2019-03-24T22:25:31.205Z,11.67
2019-03-24T22:28:00.675Z,11.07
2019-03-24T22:30:30.120Z,12.73
2019-03-24T22:32:59.595Z,12.43
2019-03-24T22:35:29.028Z,15.67
2019-03-24T22:37:58.503Z,16.30
2019-03-24T22:40:27.939Z,17.83
2019-03-24T22:42:57.469Z,11.93
2019-03-24T22:45:26.914Z,13.93
2019-03-24T22:47:56.387Z,15.47
2019-03-24T22:50:25.835Z,11.33
2019-03-24T22:52:55.319Z,14.03
2019-03-24T22:55:24.770Z,14.17
2019-03-24T22:57:54.254Z,14.03
2019-03-24T23:00:28.012Z,12.20
2019-03-24T23:02:59.112Z,15.10
2019-03-24T23:05:28.558Z,12.20
2019-03-24T23:07:58.043Z,16.17
2019-03-24T23:10:27.491Z,16.67
2019-03-24T23:12:56.963Z,13.63
2019-03-24T23:15:26.418Z,14.57
2019-03-24T23:17:55.894Z,13.40
2019-03-24T23:20:25.346Z,18.47
2019-03-24T23:22:54.823Z,9.70
2019-03-24T23:25:24.269Z,11.70
2019-03-24T23:27:54.817Z,17.10
2019-03-24T23:30:24.262Z,17.47
2019-03-24T23:32:53.807Z,10.17
2019-03-24T23:35:23.255Z,12.73
2019-03-24T23:37:52.732Z,13.67
2019-03-24T23:40:22.183Z,9.20
2019-03-24T23:42:51.660Z,10.50
2019-03-24T23:45:21.111Z,11.87
2019-03-24T23:47:50.591Z,24.53
2019-03-24T23:50:20.044Z,11.03
2019-03-24T23:52:49.529Z,21.13
2019-03-24T23:55:18.992Z,10.50
2019-03-24T23:57:48.455Z,9.87
